Hauptseite
METAR-TAF:

METAR-TAF

Flughäfen :

Flughafen Peking

Peking, China

Breite: 39-56N, Länge: 116-17E, Höhe: 55 m

Beobachtung

Neuester Wetterbericht von vor 24 Minuten, um 10:30 UTC
Wind 14 kt aus West/Nordwest, Böen bis zu 27 kt, variierte zwischen West/Südwest und Nordwest
Temperatur 12°C
Luftfeuchtigkeit 14%
Luftdruck 1020 hPa
Sichtweite 10 km oder mehr
keine Wolken unter 1500 m und keine Kumulonimbus oder Gewitterwolken

METAR: ZBAA 221030Z 29007G14MPS 240V320 CAVOK 12/M15 Q1020 NOSIG

Zeit: 18:54 (10:54 UTC)

Prognose

Neuester Wetterbericht von vor 7 Stunden und 24 Minuten, um 03:30 UTC
Gültige Prognose vom 22 um 06 UTC bis 23 um 06 UTC
Wind 14 kt aus Nordwest, Böen bis zu 29 kt
Sichtweite 10 km oder mehr
keine Wolken unter 1500 m und keine Kumulonimbus oder Gewitterwolken

TAF: ZBAA 220330Z 2206/2306 31007G15MPS CAVOK TX14/2206Z TN01/2221Z

Wetterbeobachtungen und Prognosen von mehr als 4000 Flughäfen (METAR und TAF Bericht).

Die verfügbaren Stationen werden durch gelbe und rote Markierungen auf der Karte dargestellt.

Führen Sie die Maus auf sie, um den Namen der Station zu sehen.

Darauf klicken, um die Beobachtung von Wetterbeobachtungen und Prognosen zu sehen.

Um die Karte zu ändern : klicken Sie auf den grünen Tasten mit einem schwarzen Kreuz Zum Vergrößern, auf den grünen Button mit einem Gedankenstrich zu verkleinern, oder auf die grünen Pfeile für benachbarte Karten.


METAR-TAF: